Time;durP1;ratioP1;P1;durP2;ratioP2;P2;SDS_P1;SDS_P2;PMS_P1;PMS_P2;Temp;Humidity;BMP_temperature;BMP_pressure;BME280_temperature;BME280_humidity;BME280_pressure;Samples;Min_cycle;Max_cycle;Signal;HPM_P1;HPM_P2
2024/01/06 00:02:16;;;;;;;15.32;14.07;;;;;;;5.06;100.00;100418.59;5026704;28;20113;-76
2024/01/06 00:04:42;;;;;;;0.75;0.75;;;;;;;5.72;100.00;100527.56;5035008;28;20543;-76
2024/01/06 00:07:07;;;;;;;49.42;20.85;;;;;;;5.49;100.00;100523.59;5023874;28;20057;-75
2024/01/06 00:09:33;;;;;;;1.25;1.15;;;;;;;4.78;100.00;100428.34;5023989;28;20079;-75
2024/01/06 00:11:58;;;;;;;0.35;0.35;;;;;;;5.09;100.00;100507.06;5025907;28;20053;-76
2024/01/06 00:14:24;;;;;;;7.82;7.00;;;;;;;5.27;100.00;100525.72;5017840;28;20104;-76
2024/01/06 00:16:49;;;;;;;0.70;0.70;;;;;;;4.75;100.00;100427.38;5018957;28;20037;-76
2024/01/06 00:19:17;;;;;;;3.00;2.90;;;;;;;4.53;100.00;100418.22;5021269;28;20082;-76
2024/01/06 00:21:43;;;;;;;1.63;1.52;;;;;;;5.13;100.00;100539.22;5003980;28;20123;-76
2024/01/06 00:24:09;;;;;;;1.90;1.80;;;;;;;5.01;100.00;100524.19;5021315;28;20053;-75
2024/01/06 00:26:34;;;;;;;2.58;2.47;;;;;;;4.94;100.00;100520.59;5027080;28;20092;-76
2024/01/06 00:29:00;;;;;;;3.28;3.17;;;;;;;4.69;100.00;100440.25;5005795;28;20111;-76
2024/01/06 00:31:26;;;;;;;1.58;1.48;;;;;;;5.14;100.00;100528.00;5021150;28;20487;-76
2024/01/06 00:33:51;;;;;;;2.47;1.92;;;;;;;4.70;100.00;100429.00;5027576;28;20049;-76
2024/01/06 00:36:17;;;;;;;4.95;2.50;;;;;;;5.27;100.00;100541.31;5027511;28;20428;-75
2024/01/06 00:38:42;;;;;;;74.10;34.85;;;;;;;4.34;100.00;100440.25;5027416;28;20781;-75
2024/01/06 00:41:08;;;;;;;34.85;16.48;;;;;;;4.29;100.00;100460.91;5035807;28;20068;-76
2024/01/06 00:43:33;;;;;;;1.38;0.85;;;;;;;4.10;100.00;100430.13;5033421;28;20037;-76
2024/01/06 00:45:59;;;;;;;0.93;0.93;;;;;;;4.70;100.00;100520.84;5028298;28;20091;-76
2024/01/06 00:48:25;;;;;;;9.38;8.95;;;;;;;4.84;100.00;100524.66;5030570;28;20045;-75
2024/01/06 00:50:50;;;;;;;6.78;6.22;;;;;;;4.53;100.00;100467.56;5009952;28;20049;-75
2024/01/06 00:53:16;;;;;;;7.32;6.68;;;;;;;4.56;100.00;100520.47;5032853;28;20049;-76
2024/01/06 00:55:42;;;;;;;5.35;5.05;;;;;;;3.93;100.00;100435.75;5013549;28;20061;-75
2024/01/06 00:58:08;;;;;;;2.35;2.25;;;;;;;4.67;100.00;100554.56;5026995;28;20037;-75
2024/01/06 01:00:35;;;;;;;2.30;1.38;;;;;;;4.28;100.00;100490.31;5020180;28;20124;-75
2024/01/06 01:03:01;;;;;;;1.48;1.38;;;;;;;4.61;100.00;100549.19;5004170;28;20057;-75
2024/01/06 01:05:27;;;;;;;3.40;3.25;;;;;;;3.83;100.00;100378.34;5026438;28;20566;-74
2024/01/06 01:07:52;;;;;;;1.33;1.23;;;;;;;4.70;100.00;100564.16;5017528;28;20044;-76
2024/01/06 01:10:18;;;;;;;0.80;0.80;;;;;;;4.50;100.00;100538.53;5036065;28;20132;-75
2024/01/06 01:12:43;;;;;;;3.65;3.42;;;;;;;4.33;100.00;100490.44;5039299;28;20053;-76
2024/01/06 01:15:09;;;;;;;1.20;1.17;;;;;;;4.47;100.00;100499.47;5022535;28;20053;-76
2024/01/06 01:17:34;;;;;;;5.82;5.53;;;;;;;4.83;100.00;100545.44;5028032;28;20049;-76
2024/01/06 01:20:00;;;;;;;1.02;0.93;;;;;;;4.88;100.00;100516.97;5012990;28;20047;-76
2024/01/06 01:22:26;;;;;;;8.15;7.65;;;;;;;4.68;100.00;100496.53;5030060;28;20071;-76
2024/01/06 01:24:52;;;;;;;9.25;8.38;;;;;;;4.13;100.00;100414.59;5027223;28;20132;-75
2024/01/06 01:27:17;;;;;;;3.53;3.33;;;;;;;3.95;100.00;100386.44;5018593;28;20132;-75
2024/01/06 01:29:43;;;;;;;1.55;1.50;;;;;;;4.31;100.00;100398.59;5032499;28;20091;-76
2024/01/06 01:32:08;;;;;;;2.45;2.35;;;;;;;4.53;100.00;100429.47;5020190;28;20085;-76
2024/01/06 01:34:34;;;;;;;0.85;0.85;;;;;;;4.75;100.00;100429.97;5024333;28;20505;-75
2024/01/06 01:37:00;;;;;;;1.70;0.90;;;;;;;4.98;100.00;100512.00;5030683;28;20049;-76
2024/01/06 01:39:34;;;;;;;2.90;2.72;;;;;;;4.61;100.00;100508.50;5018567;28;20511;-76
2024/01/06 01:41:59;;;;;;;1.65;1.55;;;;;;;3.96;100.00;100385.63;5008920;28;20056;-76
2024/01/06 01:44:25;;;;;;;1.75;1.65;;;;;;;4.11;100.00;100392.91;5011485;28;20467;-75
2024/01/06 01:46:52;;;;;;;4.00;3.83;;;;;;;4.78;100.00;100492.47;5023460;28;20036;-76
2024/01/06 01:49:17;;;;;;;0.63;0.55;;;;;;;4.76;100.00;100502.81;5027258;28;20133;-76
2024/01/06 01:51:44;;;;;;;15.13;13.68;;;;;;;5.07;100.00;100506.16;5028771;28;20037;-76
2024/01/06 01:54:09;;;;;;;0.82;0.70;;;;;;;4.36;100.00;100413.47;5025494;28;20053;-75
2024/01/06 01:56:38;;;;;;;5.78;3.30;;;;;;;4.80;100.00;100473.47;5020704;28;20096;-75
2024/01/06 01:59:15;;;;;;;6.78;6.43;;;;;;;4.19;100.00;100360.22;5027937;28;20057;-75
2024/01/06 02:01:41;;;;;;;1.00;1.00;;;;;;;4.89;100.00;100456.31;5026187;28;20034;-75
2024/01/06 02:04:08;;;;;;;10.23;8.27;;;;;;;4.93;100.00;100465.94;5023002;28;20060;-76
2024/01/06 02:06:33;;;;;;;3.05;2.80;;;;;;;4.26;100.00;100358.66;5021328;28;20148;-76
2024/01/06 02:08:59;;;;;;;2.60;2.50;;;;;;;4.18;100.00;100350.69;5029032;28;20132;-76
2024/01/06 02:11:24;;;;;;;2.08;1.95;;;;;;;4.15;100.00;100353.22;5029336;28;20045;-76
2024/01/06 02:13:51;;;;;;;0.40;0.40;;;;;;;4.67;100.00;100449.72;5014560;28;20053;-75
2024/01/06 02:16:17;;;;;;;0.73;0.73;;;;;;;4.58;100.00;100455.56;5034570;28;20025;-75
2024/01/06 02:18:43;;;;;;;0.30;0.30;;;;;;;4.40;100.00;100430.91;5025093;28;20096;-75
2024/01/06 02:21:09;;;;;;;0.70;0.70;;;;;;;4.55;100.00;100456.38;5029097;28;20061;-76
2024/01/06 02:23:36;;;;;;;2.30;2.20;;;;;;;4.52;100.00;100442.41;5025776;28;20057;-76
2024/01/06 02:26:03;;;;;;;1.02;0.82;;;;;;;4.05;100.00;100340.81;5004358;28;20111;-76
2024/01/06 02:28:28;;;;;;;14.63;13.55;;;;;;;4.24;100.00;100363.81;5027571;28;20037;-76
2024/01/06 02:30:54;;;;;;;0.40;0.40;;;;;;;4.62;100.00;100413.25;5028602;28;20657;-75
2024/01/06 02:33:26;;;;;;;9.30;8.50;;;;;;;4.54;100.00;100405.25;5020476;28;20053;-76
2024/01/06 02:35:58;;;;;;;3.53;3.28;;;;;;;4.52;100.00;100403.44;5018098;28;20045;-76
2024/01/06 02:38:24;;;;;;;6.28;5.88;;;;;;;4.56;100.00;100419.16;5018564;28;20064;-77
2024/01/06 02:40:49;;;;;;;0.77;0.77;;;;;;;4.34;100.00;100378.78;5008891;28;20477;-76
2024/01/06 02:43:15;;;;;;;1.95;1.85;;;;;;;3.91;100.00;100304.13;5003697;28;20069;-76
2024/01/06 02:45:40;;;;;;;0.50;0.50;;;;;;;4.37;100.00;100381.44;5023464;28;20477;-77
2024/01/06 02:48:07;;;;;;;1.73;0.70;;;;;;;4.65;100.00;100385.59;5020663;28;20059;-75
2024/01/06 02:50:33;;;;;;;1.13;1.13;;;;;;;4.66;100.00;100344.91;5004747;28;20497;-75
2024/01/06 02:52:58;;;;;;;0.55;0.55;;;;;;;3.98;100.00;100262.81;5018821;28;20045;-75
2024/01/06 02:55:30;;;;;;;2.75;2.55;;;;;;;4.51;100.00;100378.31;5015096;28;20501;-74
2024/01/06 02:58:03;;;;;;;2.45;2.33;;;;;;;3.59;100.00;100229.84;5025973;28;20045;-75
2024/01/06 03:00:28;;;;;;;4.63;4.43;;;;;;;3.63;100.00;100228.22;5025413;28;20505;-75
2024/01/06 03:02:57;;;;;;;1.23;1.15;;;;;;;4.25;100.00;100305.84;5027982;28;20037;-75
2024/01/06 03:05:22;;;;;;;3.65;3.38;;;;;;;3.64;100.00;100183.25;5021054;28;20543;-75
2024/01/06 03:07:48;;;;;;;0.68;0.68;;;;;;;4.33;100.00;100293.03;5015145;28;20029;-76
2024/01/06 03:10:14;;;;;;;1.63;1.52;;;;;;;4.20;100.00;100268.50;5015117;28;20037;-76
2024/01/06 03:12:39;;;;;;;1.10;1.00;;;;;;;4.00;100.00;100245.56;5024868;28;20045;-76
2024/01/06 03:15:05;;;;;;;4.53;4.22;;;;;;;4.40;100.00;100313.09;5017785;28;20053;-76
2024/01/06 03:17:31;;;;;;;0.63;0.63;;;;;;;4.31;100.00;100323.28;5024755;28;20116;-76
2024/01/06 03:19:57;;;;;;;2.20;2.10;;;;;;;4.19;100.00;100300.47;5028322;28;20048;-76
2024/01/06 03:22:23;;;;;;;2.33;2.00;;;;;;;4.19;100.00;100309.19;5036382;28;20796;-76
2024/01/06 03:24:48;;;;;;;6.30;5.07;;;;;;;3.42;100.00;100176.66;5024295;28;20068;-75
2024/01/06 03:27:14;;;;;;;2.38;2.28;;;;;;;4.06;100.00;100275.97;5024606;28;20119;-76
2024/01/06 03:29:40;;;;;;;2.92;2.67;;;;;;;4.33;100.00;100306.00;5024158;28;20046;-76
2024/01/06 03:32:06;;;;;;;0.75;0.75;;;;;;;3.46;100.00;100147.34;5015261;28;20057;-76
2024/01/06 03:34:31;;;;;;;1.65;1.25;;;;;;;4.30;100.00;100301.63;5026470;28;20045;-76
2024/01/06 03:36:57;;;;;;;3.08;2.33;;;;;;;4.32;100.00;100286.97;5030337;28;20037;-76
2024/01/06 03:39:23;;;;;;;3.90;1.70;;;;;;;4.09;100.00;100259.56;5007894;28;20132;-75
2024/01/06 03:41:49;;;;;;;7.25;6.72;;;;;;;2.70;100.00;100030.56;5022685;28;20556;-76
2024/01/06 03:44:14;;;;;;;7.45;5.65;;;;;;;3.98;100.00;100248.91;5001665;28;20061;-76
2024/01/06 03:46:40;;;;;;;0.43;0.43;;;;;;;4.20;100.00;100289.28;5029847;28;20469;-76
2024/01/06 03:49:05;;;;;;;3.10;2.95;;;;;;;4.10;100.00;100264.81;5017478;28;20050;-76
2024/01/06 03:51:31;;;;;;;5.80;4.70;;;;;;;3.91;100.00;100244.44;5029181;28;20041;-76
2024/01/06 03:53:56;;;;;;;0.45;0.45;;;;;;;3.14;100.00;100095.59;5032138;28;20068;-76
2024/01/06 03:56:22;;;;;;;2.30;2.20;;;;;;;3.77;100.00;100223.34;5011701;28;20076;-76
2024/01/06 03:58:48;;;;;;;10.23;9.38;;;;;;;4.10;100.00;100292.50;5025629;28;20080;-76
2024/01/06 04:01:13;;;;;;;8.30;7.88;;;;;;;3.89;100.00;100275.56;5025616;28;20120;-77
2024/01/06 04:03:42;;;;;;;3.17;3.03;;;;;;;3.70;100.00;100198.06;5026212;28;20754;-76
2024/01/06 04:06:08;;;;;;;0.65;0.65;;;;;;;3.78;100.00;100264.03;5030159;28;20401;-76
2024/01/06 04:08:36;;;;;;;0.70;0.70;;;;;;;3.82;100.00;100252.88;5005138;28;20494;-76
2024/01/06 04:11:03;;;;;;;11.23;10.63;;;;;;;3.92;100.00;100296.38;5031201;28;20025;-76
2024/01/06 04:13:28;;;;;;;0.50;0.50;;;;;;;2.73;100.00;100073.81;5027849;28;20021;-76
2024/01/06 04:15:54;;;;;;;0.85;0.82;;;;;;;4.04;100.00;100277.63;5009411;28;20056;-76
2024/01/06 04:18:20;;;;;;;4.40;4.13;;;;;;;2.91;100.00;100078.59;5024322;28;20164;-76
2024/01/06 04:20:45;;;;;;;20.20;18.05;;;;;;;3.34;100.00;100178.19;5031369;28;20052;-76
2024/01/06 04:23:11;;;;;;;0.63;0.63;;;;;;;4.04;100.00;100259.47;5029678;28;20060;-76
2024/01/06 04:25:36;;;;;;;1.08;1.08;;;;;;;4.08;100.00;100279.47;5038495;28;20028;-76
2024/01/06 04:28:02;;;;;;;3.25;3.15;;;;;;;4.03;100.00;100255.13;5011428;28;20108;-77
2024/01/06 04:30:28;;;;;;;3.60;3.40;;;;;;;3.94;100.00;100258.38;5025021;28;20040;-74
2024/01/06 04:32:56;;;;;;;1.52;1.42;;;;;;;3.67;100.00;100200.59;5023458;28;20053;-76
2024/01/06 04:35:22;;;;;;;1.60;1.50;;;;;;;3.86;100.00;100233.06;5023143;28;20072;-75
2024/01/06 04:37:48;;;;;;;1.15;1.15;;;;;;;4.05;100.00;100273.31;5023798;28;20443;-76
2024/01/06 04:40:13;;;;;;;1.70;1.60;;;;;;;3.68;100.00;100204.97;5030187;28;20029;-76
2024/01/06 04:42:39;;;;;;;12.60;10.50;;;;;;;3.43;100.00;100155.06;5025121;28;20046;-76
2024/01/06 04:45:05;;;;;;;0.30;0.30;;;;;;;4.28;100.00;100312.81;5025697;28;20064;-76
2024/01/06 04:47:30;;;;;;;2.88;2.78;;;;;;;4.30;100.00;100262.66;5034212;28;20045;-76
2024/01/06 04:49:56;;;;;;;10.70;9.93;;;;;;;4.11;100.00;100211.16;5030425;28;20049;-76
2024/01/06 04:52:22;;;;;;;0.57;0.57;;;;;;;4.29;100.00;100228.88;5024554;28;20045;-76
2024/01/06 04:54:48;;;;;;;3.60;3.40;;;;;;;4.22;100.00;100207.09;5027116;28;20077;-75
2024/01/06 04:57:14;;;;;;;1.13;1.13;;;;;;;4.13;100.00;100201.69;5022394;28;20409;-76
2024/01/06 04:59:40;;;;;;;0.50;0.50;;;;;;;4.10;100.00;100167.88;5006085;28;20238;-76
2024/01/06 05:02:06;;;;;;;4.80;4.60;;;;;;;4.77;100.00;100277.53;5021287;28;20152;-76
2024/01/06 05:04:32;;;;;;;15.63;14.32;;;;;;;3.99;100.00;100194.47;5030657;28;20056;-77
2024/01/06 05:07:00;;;;;;;3.88;3.53;;;;;;;4.20;100.00;100186.28;5028879;28;20033;-76
2024/01/06 05:09:26;;;;;;;3.35;2.95;;;;;;;3.86;100.00;100189.81;5024557;28;20045;-76
2024/01/06 05:11:52;;;;;;;0.60;0.57;;;;;;;4.78;100.00;100275.00;5015604;28;20049;-76
2024/01/06 05:14:18;;;;;;;3.05;2.80;;;;;;;4.36;100.00;100226.44;5022713;28;20125;-77
2024/01/06 05:16:44;;;;;;;0.75;0.75;;;;;;;3.97;100.00;100144.22;5001942;28;20044;-75
2024/01/06 05:19:10;;;;;;;1.95;1.85;;;;;;;4.30;100.00;100246.22;5028635;28;20037;-76
2024/01/06 05:21:36;;;;;;;2.25;2.17;;;;;;;4.30;100.00;100249.69;5023069;28;20049;-77
2024/01/06 05:24:03;;;;;;;2.38;1.90;;;;;;;3.90;100.00;100183.00;5031739;28;20048;-75
2024/01/06 05:26:29;;;;;;;9.88;9.00;;;;;;;3.78;100.00;100165.41;5015920;28;20132;-76
2024/01/06 05:28:54;;;;;;;0.30;0.30;;;;;;;4.12;100.00;100234.56;5019884;28;20029;-75
2024/01/06 05:31:20;;;;;;;7.88;7.07;;;;;;;3.65;100.00;100171.16;5017265;28;20470;-76
2024/01/06 05:33:45;;;;;;;2.17;2.08;;;;;;;4.22;100.00;100257.31;5019968;28;20850;-76
2024/01/06 05:36:11;;;;;;;0.30;0.30;;;;;;;3.41;100.00;100111.78;5019480;28;20061;-75
2024/01/06 05:38:36;;;;;;;12.20;10.20;;;;;;;3.68;100.00;100182.50;5025290;28;20098;-75
2024/01/06 05:41:02;;;;;;;3.70;3.55;;;;;;;3.51;100.00;100118.94;5018025;28;20659;-75
2024/01/06 05:43:28;;;;;;;0.40;0.40;;;;;;;4.46;100.00;100263.91;5022486;28;20440;-75
2024/01/06 05:45:53;;;;;;;0.80;0.80;;;;;;;4.25;100.00;100251.28;5002647;28;20088;-76
2024/01/06 05:48:19;;;;;;;3.78;3.58;;;;;;;4.22;100.00;100257.31;5019195;28;20049;-76
2024/01/06 05:50:45;;;;;;;0.65;0.65;;;;;;;3.86;100.00;100196.72;5021473;28;20096;-76
2024/01/06 05:53:11;;;;;;;6.75;6.43;;;;;;;3.70;100.00;100151.38;5018287;28;20973;-76
2024/01/06 05:55:36;;;;;;;3.97;3.63;;;;;;;4.18;100.00;100247.69;5028365;28;20025;-76
2024/01/06 05:58:02;;;;;;;5.60;5.30;;;;;;;4.17;100.00;100221.69;5028612;28;20060;-76
2024/01/06 06:00:27;;;;;;;9.45;8.90;;;;;;;3.83;100.00;100171.59;5019160;28;20056;-77
2024/01/06 06:02:53;;;;;;;15.50;14.65;;;;;;;4.67;100.00;100273.00;5006078;28;20128;-76
2024/01/06 06:05:20;;;;;;;7.53;6.07;;;;;;;4.69;100.00;100272.19;5027181;28;20650;-76
2024/01/06 06:07:45;;;;;;;5.07;4.88;;;;;;;4.29;100.00;100266.13;5033080;28;20109;-75
2024/01/06 06:10:12;;;;;;;1.40;1.33;;;;;;;3.53;100.00;100150.97;5019875;28;20429;-76
2024/01/06 06:12:38;;;;;;;0.70;0.70;;;;;;;3.51;100.00;100150.06;5023269;28;20054;-76
2024/01/06 06:15:06;;;;;;;9.25;8.70;;;;;;;3.55;100.00;100170.91;5020172;28;20057;-76
2024/01/06 06:17:31;;;;;;;17.38;15.82;;;;;;;4.16;100.00;100277.91;5009550;28;20399;-76
2024/01/06 06:19:57;;;;;;;15.98;13.93;;;;;;;4.05;100.00;100262.94;5032330;28;20034;-76
2024/01/06 06:22:25;;;;;;;5.07;4.82;;;;;;;4.15;100.00;100276.19;5010853;28;20756;-77
2024/01/06 06:24:51;;;;;;;5.03;4.55;;;;;;;4.34;100.00;100256.69;5028021;28;20050;-76
2024/01/06 06:27:18;;;;;;;2.38;2.17;;;;;;;3.84;100.00;100138.72;5025500;28;20058;-76
2024/01/06 06:29:43;;;;;;;3.35;3.13;;;;;;;4.28;100.00;100186.44;5027228;28;20147;-76
2024/01/06 06:32:10;;;;;;;4.70;4.38;;;;;;;4.36;100.00;100256.75;5026279;28;20625;-76
2024/01/06 06:34:35;;;;;;;0.95;0.93;;;;;;;3.43;100.00;100151.59;5021184;28;20069;-76
2024/01/06 06:37:01;;;;;;;2.38;1.77;;;;;;;3.49;100.00;100144.84;5026818;28;20053;-76
2024/01/06 06:39:27;;;;;;;4.35;4.15;;;;;;;4.45;100.00;100277.75;5023396;28;20123;-77
2024/01/06 06:41:52;;;;;;;0.63;0.63;;;;;;;4.59;100.00;100259.84;5024604;28;20052;-76
2024/01/06 06:44:18;;;;;;;1.92;1.80;;;;;;;4.32;100.00;100195.19;5003298;28;20409;-75
2024/01/06 06:46:43;;;;;;;1.83;1.73;;;;;;;4.33;100.00;100241.06;5016465;28;20121;-75
2024/01/06 06:49:09;;;;;;;6.43;6.07;;;;;;;3.74;100.00;100159.25;5031078;28;20045;-75
2024/01/06 06:51:35;;;;;;;4.68;4.43;;;;;;;4.14;100.00;100191.31;5014651;28;20520;-74
2024/01/06 06:54:01;;;;;;;8.48;8.02;;;;;;;4.43;100.00;100261.25;5026983;28;20107;-75
2024/01/06 06:56:28;;;;;;;2.33;2.22;;;;;;;4.24;100.00;100239.16;5016790;28;20081;-76
2024/01/06 06:58:53;;;;;;;1.77;1.67;;;;;;;3.84;100.00;100142.22;5026505;28;20068;-75
2024/01/06 07:01:19;;;;;;;7.50;7.10;;;;;;;4.31;100.00;100232.38;5031325;28;20140;-76
2024/01/06 07:03:44;;;;;;;7.57;7.07;;;;;;;4.29;100.00;100154.44;5032413;28;20076;-77
2024/01/06 07:06:14;;;;;;;3.00;2.83;;;;;;;4.83;100.00;100242.16;5038314;28;20076;-75
2024/01/06 07:08:41;;;;;;;3.72;3.50;;;;;;;4.92;100.00;100209.41;5025917;28;20050;-76
2024/01/06 07:11:08;;;;;;;2.72;2.53;;;;;;;5.04;100.00;100218.31;5037365;28;20062;-76
2024/01/06 07:13:33;;;;;;;3.60;3.40;;;;;;;4.91;100.00;100210.25;5027989;28;20050;-75
2024/01/06 07:16:00;;;;;;;1.98;1.85;;;;;;;5.18;100.00;100204.72;5027178;28;20195;-76
2024/01/06 07:18:26;;;;;;;3.40;3.20;;;;;;;5.51;100.00;100222.63;5027328;28;20057;-75
2024/01/06 07:20:51;;;;;;;4.55;4.20;;;;;;;5.56;100.00;100218.38;5029825;28;20477;-76
2024/01/06 07:23:17;;;;;;;2.90;2.70;;;;;;;5.61;100.00;100221.06;5022728;28;20045;-76
2024/01/06 07:25:42;;;;;;;8.88;8.40;;;;;;;4.86;100.00;100172.03;5037101;28;20370;-76
2024/01/06 07:28:08;;;;;;;5.53;5.20;;;;;;;5.00;100.00;100181.81;5020764;28;20084;-75
2024/01/06 07:30:34;;;;;;;2.13;2.03;;;;;;;5.59;100.00;100233.16;5030054;28;20106;-75
2024/01/06 07:33:00;;;;;;;13.23;10.63;;;;;;;5.07;100.00;100149.88;5025019;28;20065;-75
2024/01/06 07:35:25;;;;;;;1.77;1.67;;;;;;;5.11;100.00;100203.72;5026675;28;20111;-76
2024/01/06 07:37:51;;;;;;;0.90;0.88;;;;;;;5.27;100.00;100231.75;5023489;28;20144;-76
2024/01/06 07:40:17;;;;;;;3.05;2.85;;;;;;;5.16;100.00;100228.06;5026583;28;20079;-76
2024/01/06 07:42:44;;;;;;;0.40;0.40;;;;;;;5.45;100.00;100233.78;5034943;28;20445;-76
2024/01/06 07:45:13;;;;;;;24.23;22.17;;;;;;;5.18;100.00;100119.75;5028759;28;20056;-77
2024/01/06 07:47:38;;;;;;;10.52;9.52;;;;;;;5.88;100.00;100218.06;5035575;28;20077;-77
2024/01/06 07:50:05;;;;;;;0.30;0.30;;;;;;;5.48;100.00;100197.44;5024140;28;20056;-76
2024/01/06 07:52:31;;;;;;;13.18;12.45;;;;;;;5.96;100.00;100223.41;5032431;28;20044;-77
2024/01/06 07:54:56;;;;;;;5.22;4.78;;;;;;;6.18;100.00;100230.69;5024406;28;20045;-77
2024/01/06 07:57:22;;;;;;;0.90;0.90;;;;;;;6.10;100.00;100240.13;5024915;28;20191;-76
2024/01/06 07:59:48;;;;;;;9.45;8.88;;;;;;;5.23;100.00;100133.69;5033365;28;20063;-76
2024/01/06 08:02:14;;;;;;;4.22;3.97;;;;;;;6.07;100.00;100212.28;5022585;28;20057;-76
2024/01/06 08:04:40;;;;;;;10.65;9.63;;;;;;;6.36;100.00;100250.91;5029399;28;20041;-76
2024/01/06 08:07:06;;;;;;;2.35;1.90;;;;;;;6.07;100.00;100253.09;5003379;28;20108;-76
2024/01/06 08:09:31;;;;;;;1.30;1.25;;;;;;;5.70;100.00;100250.72;5022495;28;20129;-77
2024/01/06 08:11:57;;;;;;;5.72;5.43;;;;;;;5.84;100.00;100255.28;5030949;28;20049;-76
2024/01/06 08:14:23;;;;;;;2.30;2.17;;;;;;;5.71;100.00;100239.47;5011288;28;20049;-77
2024/01/06 08:16:48;;;;;;;0.85;0.85;;;;;;;6.13;100.00;100246.25;5027163;28;20033;-76
2024/01/06 08:19:14;;;;;;;15.82;11.48;;;;;;;5.45;100.00;100132.31;5024146;28;20390;-76
2024/01/06 08:21:42;;;;;;;7.13;6.70;;;;;;;5.53;100.00;100196.66;5008366;28;20134;-76
2024/01/06 08:24:08;;;;;;;8.00;7.43;;;;;;;5.58;100.00;100203.66;5016683;28;20052;-76
2024/01/06 08:26:34;;;;;;;3.42;3.05;;;;;;;5.85;100.00;100223.19;4991683;28;20052;-79
2024/01/06 08:28:59;;;;;;;1.77;1.70;;;;;;;5.76;100.00;100165.75;5016481;28;20057;-81
2024/01/06 08:31:25;;;;;;;12.63;11.35;;;;;;;5.75;100.00;100175.31;5022145;28;20423;-81
2024/01/06 08:33:51;;;;;;;3.20;3.08;;;;;;;6.16;100.00;100223.69;5027356;28;20179;-80
2024/01/06 08:36:17;;;;;;;1.98;1.88;;;;;;;4.81;100.00;99970.06;5003041;28;20061;-77
2024/01/06 08:38:43;;;;;;;1.95;1.85;;;;;;;6.19;100.00;100198.56;5014828;28;20439;-76
2024/01/06 08:41:08;;;;;;;18.40;17.17;;;;;;;5.82;100.00;100130.28;5010854;28;20040;-77
2024/01/06 08:43:34;;;;;;;9.15;8.27;;;;;;;6.20;100.00;100153.41;5005837;28;20048;-75
2024/01/06 08:46:02;;;;;;;1.30;1.25;;;;;;;6.57;100.00;100205.16;5032894;28;20139;-75
2024/01/06 08:48:27;;;;;;;12.82;11.90;;;;;;;6.38;100.00;100167.56;5027597;28;20109;-76
2024/01/06 08:50:53;;;;;;;0.75;0.75;;;;;;;6.04;100.00;100092.44;5016222;28;20044;-74
2024/01/06 08:53:18;;;;;;;1.77;1.67;;;;;;;5.93;100.00;100047.13;5029963;28;20131;-75
2024/01/06 08:55:44;;;;;;;1.45;1.35;;;;;;;6.85;100.00;100182.91;5036352;28;20437;-75
2024/01/06 08:58:11;;;;;;;4.32;4.05;;;;;;;6.76;100.00;100183.66;5028998;28;20037;-75
2024/01/06 09:00:37;;;;;;;4.28;3.92;;;;;;;6.36;100.00;100057.22;5036813;28;20049;-77
2024/01/06 09:03:03;;;;;;;1.50;1.40;;;;;;;7.22;100.00;100163.28;5032408;28;20531;-75
2024/01/06 09:05:28;;;;;;;4.68;4.47;;;;;;;7.06;100.00;100157.03;5033887;28;20473;-76
2024/01/06 09:07:54;;;;;;;3.70;3.50;;;;;;;7.18;100.00;100177.16;5016694;28;20416;-76
2024/01/06 09:10:19;;;;;;;3.03;2.80;;;;;;;7.01;100.00;100137.00;5038682;28;20029;-75
2024/01/06 09:12:45;;;;;;;1.05;1.02;;;;;;;6.93;100.00;100075.19;5013745;28;20041;-76
2024/01/06 09:15:11;;;;;;;5.13;4.90;;;;;;;7.27;100.00;100067.66;5026462;28;20049;-76
2024/01/06 09:17:36;;;;;;;7.20;0.98;;;;;;;7.58;100.00;100161.84;4997149;28;20147;-75
2024/01/06 09:20:03;;;;;;;0.73;0.73;;;;;;;7.45;100.00;100133.91;5028792;28;20049;-75
2024/01/06 09:22:28;;;;;;;0.85;0.85;;;;;;;7.47;100.00;100119.13;5034353;28;20539;-77
2024/01/06 09:24:54;;;;;;;1.80;1.70;;;;;;;7.02;100.00;100039.59;5017485;28;20045;-75
2024/01/06 09:27:20;;;;;;;0.88;0.82;;;;;;;7.19;100.00;100049.31;5016276;28;20136;-75
2024/01/06 09:29:45;;;;;;;4.88;4.13;;;;;;;7.26;100.00;100050.25;5010381;28;20077;-75
2024/01/06 09:32:12;;;;;;;4.38;4.00;;;;;;;7.65;100.00;100134.91;5018050;28;20168;-75
2024/01/06 09:34:38;;;;;;;0.93;0.93;;;;;;;7.52;100.00;100107.00;5022982;28;20136;-77
2024/01/06 09:37:05;;;;;;;6.65;6.22;;;;;;;6.95;100.00;100012.59;5022034;28;20045;-74
2024/01/06 09:39:32;;;;;;;6.47;4.82;;;;;;;7.12;100.00;100029.28;5021079;28;20048;-77
2024/01/06 09:41:58;;;;;;;15.30;14.52;;;;;;;7.58;100.00;100076.56;5025442;28;20060;-77
2024/01/06 09:44:24;;;;;;;1.70;1.60;;;;;;;7.81;100.00;100108.06;5014781;28;20046;-79
2024/01/06 09:46:50;;;;;;;3.20;3.00;;;;;;;7.91;100.00;100114.19;5016630;28;20038;-75
2024/01/06 09:49:23;;;;;;;0.57;0.57;;;;;;;7.71;100.00;100082.75;5016299;28;20120;-76
2024/01/06 09:51:51;;;;;;;62.60;23.55;;;;;;;7.91;100.00;100092.44;5008886;28;20054;-73
2024/01/06 09:54:24;;;;;;;3.50;3.30;;;;;;;7.99;100.00;100088.13;5007393;28;20065;-72
2024/01/06 09:56:50;;;;;;;1.70;1.60;;;;;;;7.69;100.00;100013.09;5027609;28;20045;-72
2024/01/06 09:59:15;;;;;;;3.22;1.48;;;;;;;8.37;100.00;100095.28;5040483;28;20111;-73
2024/01/06 10:01:42;;;;;;;11.23;10.15;;;;;;;7.86;100.00;100006.19;5022734;28;20083;-72
2024/01/06 10:04:08;;;;;;;4.57;4.15;;;;;;;7.94;100.00;99988.84;5027084;28;20056;-74
2024/01/06 10:06:35;;;;;;;1.15;1.10;;;;;;;8.51;100.00;100070.06;5017593;28;20057;-72
2024/01/06 10:09:01;;;;;;;2.70;2.50;;;;;;;8.28;100.00;99985.44;5024894;28;20084;-74
2024/01/06 10:11:27;;;;;;;2.72;2.45;;;;;;;8.81;100.00;100060.56;5008108;28;20123;-71
2024/01/06 10:13:55;;;;;;;14.00;12.98;;;;;;;8.97;100.00;100043.13;5025917;28;20033;-75
2024/01/06 10:16:22;;;;;;;6.45;5.82;;;;;;;8.52;100.00;99968.97;5011243;28;20544;-73
2024/01/06 10:18:48;;;;;;;10.25;8.07;;;;;;;9.26;100.00;100061.44;5029138;28;20092;-72
2024/01/06 10:21:17;;;;;;;0.30;0.30;;;;;;;8.54;100.00;99959.38;5031212;28;20448;-74
2024/01/06 10:23:45;;;;;;;0.93;0.93;;;;;;;9.08;100.00;100068.44;5036029;28;20057;-72
2024/01/06 10:26:14;;;;;;;0.82;0.82;;;;;;;9.32;100.00;100050.09;5028714;28;20057;-72
2024/01/06 10:28:41;;;;;;;2.78;2.58;;;;;;;9.20;100.00;99948.88;5001532;28;20195;-73
2024/01/06 10:31:08;;;;;;;6.63;5.25;;;;;;;9.44;100.00;99942.72;5026218;28;20149;-73
2024/01/06 10:33:33;;;;;;;1.38;1.30;;;;;;;9.33;100.00;99919.19;5025077;28;20187;-72
2024/01/06 10:36:01;;;;;;;1.55;1.45;;;;;;;9.39;100.00;99960.16;5031255;28;20132;-73
2024/01/06 10:38:26;;;;;;;9.73;8.70;;;;;;;9.25;100.00;99920.97;5035584;28;20048;-72
2024/01/06 10:41:09;;;;;;;17.27;16.10;;;;;;;9.73;100.00;99987.16;5025870;28;20072;-72
2024/01/06 10:43:37;;;;;;;11.02;8.43;;;;;;;10.03;100.00;100029.84;5020368;28;20507;-72
2024/01/06 10:46:04;;;;;;;1.75;1.40;;;;;;;8.84;100.00;99843.41;5014979;28;20053;-74
2024/01/06 10:48:35;;;;;;;12.23;9.48;;;;;;;9.95;100.00;100006.31;5018192;28;20058;-74
2024/01/06 10:51:07;;;;;;;17.65;16.17;;;;;;;9.90;100.00;100008.94;5015274;28;20420;-74
2024/01/06 10:53:43;;;;;;;5.67;5.27;;;;;;;9.42;100.00;99913.06;5014595;28;20122;-72
2024/01/06 10:56:17;;;;;;;2.25;2.15;;;;;;;9.93;100.00;99985.31;5018890;28;20084;-72
2024/01/06 10:58:52;;;;;;;0.30;0.30;;;;;;;9.70;100.00;99924.28;4998353;28;20037;-72
2024/01/06 11:01:24;;;;;;;8.60;7.80;;;;;;;10.18;100.00;99995.69;5001513;28;20530;-72
2024/01/06 11:03:51;;;;;;;0.43;0.43;;;;;;;9.33;100.00;99890.38;5016043;28;20085;-71
2024/01/06 11:06:19;;;;;;;0.20;0.20;;;;;;;9.76;100.00;99942.59;5015911;28;20132;-72
2024/01/06 11:08:51;;;;;;;1.27;1.17;;;;;;;9.26;100.00;99884.28;5015918;28;20151;-73
2024/01/06 11:11:18;;;;;;;9.60;8.18;;;;;;;9.84;100.00;99974.88;5022271;28;20321;-73
2024/01/06 11:13:45;;;;;;;1.48;1.38;;;;;;;9.15;100.00;99877.34;5020449;28;20133;-74
2024/01/06 11:16:33;;;;;;;2.45;2.30;;;;;;;9.59;100.00;99945.28;5018225;28;20088;-75
2024/01/06 11:18:58;;;;;;;6.57;3.38;;;;;;;9.59;100.00;99961.00;5008528;28;20056;-73
2024/01/06 11:21:27;;;;;;;10.77;6.78;;;;;;;9.21;100.00;99874.72;5027939;28;20421;-73